createdAt,value
2023-10-12T00:02:39.154Z,6.10
2023-10-12T00:05:45.735Z,4.93
2023-10-12T00:08:46.786Z,4.85
2023-10-12T00:12:11.167Z,6.03
2023-10-12T00:15:22.381Z,5.35
2023-10-12T00:18:24.075Z,6.03
2023-10-12T00:21:27.292Z,5.95
2023-10-12T00:24:29.402Z,6.40
2023-10-12T00:27:30.616Z,5.32
2023-10-12T00:30:32.890Z,5.45
2023-10-12T00:33:34.094Z,6.10
2023-10-12T00:36:38.666Z,5.10
2023-10-12T00:40:02.716Z,6.55
2023-10-12T00:43:03.842Z,5.28
2023-10-12T00:46:23.796Z,6.13
2023-10-12T00:49:28.842Z,5.38
2023-10-12T00:52:47.529Z,5.22
2023-10-12T00:55:49.086Z,4.90
2023-10-12T00:58:52.220Z,5.22
2023-10-12T01:01:54.693Z,4.57
2023-10-12T01:04:55.743Z,4.20
2023-10-12T01:07:57.045Z,4.80
2023-10-12T01:11:05.881Z,5.30
2023-10-12T01:14:11.555Z,5.60
2023-10-12T01:17:19.523Z,5.47
2023-10-12T01:20:27.817Z,5.28
2023-10-12T01:23:29.537Z,4.72
2023-10-12T01:26:33.037Z,4.88
2023-10-12T01:29:35.993Z,4.35
2023-10-12T01:32:38.996Z,5.15
2023-10-12T01:35:41.268Z,4.80
2023-10-12T01:38:41.923Z,5.20
2023-10-12T01:41:43.115Z,5.22
2023-10-12T01:44:44.635Z,5.10
2023-10-12T01:47:50.124Z,4.95
2023-10-12T01:50:51.020Z,4.93
2023-10-12T01:53:57.066Z,5.22
2023-10-12T01:56:58.136Z,4.65
2023-10-12T02:00:00.159Z,4.82
2023-10-12T02:03:16.330Z,4.68
2023-10-12T02:06:21.105Z,5.28
2023-10-12T02:09:23.880Z,5.07
2023-10-12T02:12:27.520Z,5.78
2023-10-12T02:15:33.443Z,5.55
2023-10-12T02:18:36.169Z,5.40
2023-10-12T02:21:42.587Z,5.45
2023-10-12T02:24:46.230Z,4.83
2023-10-12T02:27:56.391Z,4.68
2023-10-12T02:30:57.602Z,5.22
2023-10-12T02:34:02.699Z,5.28
2023-10-12T02:37:03.919Z,5.32
2023-10-12T02:40:05.677Z,5.50
2023-10-12T02:43:11.049Z,5.18
2023-10-12T02:46:23.673Z,6.00
2023-10-12T02:49:25.686Z,5.10
2023-10-12T02:52:26.845Z,5.32
2023-10-12T02:55:34.655Z,5.57
2023-10-12T02:58:35.699Z,6.65
2023-10-12T03:01:40.400Z,6.75
2023-10-12T03:04:42.218Z,5.57
2023-10-12T03:07:43.304Z,7.07
2023-10-12T03:11:10.489Z,6.13
2023-10-12T03:14:15.812Z,6.53
2023-10-12T03:17:17.796Z,4.40
2023-10-12T03:20:23.517Z,5.38
2023-10-12T03:23:27.936Z,5.30
2023-10-12T03:26:28.895Z,5.47
2023-10-12T03:29:30.410Z,5.80
2023-10-12T03:32:33.444Z,6.63
2023-10-12T03:35:35.348Z,5.72
2023-10-12T03:38:36.760Z,6.10
2023-10-12T03:41:48.144Z,7.03
2023-10-12T03:44:49.231Z,5.75
2023-10-12T03:48:10.521Z,4.80
2023-10-12T03:51:17.354Z,5.68
2023-10-12T03:54:30.920Z,5.78
2023-10-12T03:57:45.493Z,4.93
2023-10-12T04:00:50.133Z,5.68
2023-10-12T04:04:00.478Z,6.38
2023-10-12T04:07:02.664Z,6.90
2023-10-12T04:10:24.116Z,5.15
2023-10-12T04:13:27.995Z,6.43
2023-10-12T04:16:41.555Z,6.07
2023-10-12T04:19:45.026Z,6.30
2023-10-12T04:22:51.058Z,5.50
2023-10-12T04:29:02.427Z,5.95
2023-10-12T04:32:26.128Z,5.95
2023-10-12T04:35:45.018Z,5.57
2023-10-12T04:38:46.253Z,5.43
2023-10-12T04:41:47.147Z,4.50
2023-10-12T04:45:04.615Z,5.13
2023-10-12T04:48:09.466Z,5.85
2023-10-12T04:51:19.898Z,6.32
2023-10-12T04:54:26.973Z,7.07
2023-10-12T04:57:32.106Z,6.82
2023-10-12T05:00:49.448Z,7.40
2023-10-12T05:04:08.761Z,7.95
2023-10-12T05:07:18.815Z,8.95
2023-10-12T05:10:27.732Z,7.45
2023-10-12T05:13:29.508Z,7.55
2023-10-12T05:16:32.671Z,8.95
2023-10-12T05:19:33.464Z,9.77
2023-10-12T05:22:34.621Z,11.23
2023-10-12T05:25:59.737Z,11.52
2023-10-12T05:29:30.095Z,11.77
2023-10-12T05:32:44.766Z,13.63
2023-10-12T05:35:51.761Z,13.95
2023-10-12T05:39:07.425Z,13.90
2023-10-12T05:42:09.340Z,13.73
2023-10-12T05:45:36.742Z,10.95
2023-10-12T05:48:47.910Z,9.50
2023-10-12T05:51:48.828Z,9.82
2023-10-12T05:54:52.924Z,8.73
2023-10-12T05:57:56.569Z,9.18
2023-10-12T06:00:57.973Z,9.00
2023-10-12T06:04:00.730Z,8.93
2023-10-12T06:07:02.200Z,10.85
2023-10-12T06:10:10.729Z,12.07
2023-10-12T06:13:16.772Z,7.47
2023-10-12T06:16:18.983Z,7.53
2023-10-12T06:19:24.824Z,6.28
2023-10-12T06:22:33.594Z,5.80
2023-10-12T06:25:34.890Z,6.18
2023-10-12T06:28:35.934Z,6.30
2023-10-12T06:31:37.326Z,7.03
2023-10-12T06:34:38.662Z,6.88
2023-10-12T06:37:58.246Z,7.28
2023-10-12T06:41:25.239Z,8.25
2023-10-12T06:44:28.724Z,6.35
2023-10-12T06:47:33.955Z,7.47
2023-10-12T06:50:35.932Z,6.57
2023-10-12T06:53:38.328Z,6.88
2023-10-12T06:56:41.890Z,7.10
2023-10-12T07:00:02.096Z,6.22
2023-10-12T07:03:10.416Z,7.25
2023-10-12T07:06:16.142Z,6.78
2023-10-12T07:09:16.995Z,7.20
2023-10-12T07:12:24.181Z,6.80
2023-10-12T07:18:28.508Z,6.68
2023-10-12T07:21:29.326Z,6.35
2023-10-12T07:24:34.869Z,6.60
2023-10-12T07:27:53.431Z,6.28
2023-10-12T07:31:25.218Z,5.72
2023-10-12T07:34:26.175Z,6.05
2023-10-12T07:37:28.855Z,6.45
2023-10-12T07:40:36.964Z,5.47
2023-10-12T07:43:39.781Z,6.22
2023-10-12T07:46:41.086Z,6.13
2023-10-12T07:49:50.338Z,6.28
2023-10-12T07:52:55.222Z,6.93
2023-10-12T07:56:02.561Z,5.80
2023-10-12T07:59:03.442Z,5.28
2023-10-12T08:02:16.821Z,6.30
2023-10-12T08:05:25.672Z,5.72
2023-10-12T08:08:36.370Z,5.22
2023-10-12T08:11:41.029Z,4.65
2023-10-12T08:14:42.772Z,5.07
2023-10-12T08:17:47.413Z,5.60
2023-10-12T08:21:01.854Z,5.40
2023-10-12T08:24:10.634Z,6.13
2023-10-12T08:27:13.614Z,5.22
2023-10-12T08:30:25.146Z,5.55
2023-10-12T08:33:46.354Z,5.70
2023-10-12T08:37:19.408Z,5.30
2023-10-12T08:40:21.463Z,4.88
2023-10-12T08:43:42.807Z,5.50
2023-10-12T08:46:55.213Z,5.88
2023-10-12T08:50:05.864Z,5.53
2023-10-12T08:53:09.297Z,5.28
2023-10-12T08:56:13.429Z,5.40
2023-10-12T08:59:17.238Z,5.63
2023-10-12T09:02:22.452Z,6.15
2023-10-12T09:05:26.809Z,5.60
2023-10-12T09:08:30.508Z,5.47
2023-10-12T09:11:35.103Z,5.78
2023-10-12T09:14:36.411Z,6.45
2023-10-12T09:17:42.603Z,5.53
2023-10-12T09:21:01.334Z,5.60
2023-10-12T09:24:23.368Z,5.28
2023-10-12T09:27:37.755Z,4.40
2023-10-12T09:30:46.438Z,4.80
2023-10-12T09:34:13.919Z,3.90
2023-10-12T09:37:19.435Z,4.20
2023-10-12T09:40:40.582Z,4.07
2023-10-12T09:43:45.504Z,4.57
2023-10-12T09:46:49.780Z,4.22
2023-10-12T09:49:59.348Z,3.92
2023-10-12T09:53:13.951Z,3.97
2023-10-12T09:56:19.685Z,4.03
2023-10-12T09:59:21.666Z,3.60
2023-10-12T10:02:29.650Z,3.53
2023-10-12T10:06:02.554Z,3.95
2023-10-12T10:09:19.506Z,3.38
2023-10-12T10:12:22.539Z,3.70
2023-10-12T10:15:25.264Z,3.15
2023-10-12T10:18:29.763Z,3.05
2023-10-12T10:21:34.580Z,3.53
2023-10-12T10:24:47.965Z,3.38
2023-10-12T10:27:50.342Z,2.70
2023-10-12T10:30:53.725Z,2.90
2023-10-12T10:33:59.386Z,3.50
2023-10-12T10:37:05.644Z,3.33
2023-10-12T10:40:11.473Z,2.83
2023-10-12T10:43:17.186Z,3.17
2023-10-12T10:46:19.764Z,3.08
2023-10-12T10:52:27.759Z,3.78
2023-10-12T10:55:32.866Z,3.00
2023-10-12T10:58:33.895Z,3.08
2023-10-12T11:01:35.348Z,3.03
2023-10-12T11:04:42.254Z,2.97
2023-10-12T11:11:09.378Z,3.05
2023-10-12T11:17:14.431Z,3.33
2023-10-12T11:20:45.977Z,3.60
2023-10-12T11:23:48.206Z,3.80
2023-10-12T11:26:53.110Z,3.28
2023-10-12T11:29:53.815Z,4.07
2023-10-12T11:32:56.822Z,3.97
2023-10-12T11:36:02.312Z,3.28
2023-10-12T11:39:12.015Z,3.35
2023-10-12T11:42:16.403Z,3.25
2023-10-12T11:45:18.063Z,3.28
2023-10-12T11:48:23.799Z,3.40
2023-10-12T11:51:25.044Z,3.83
2023-10-12T11:54:34.386Z,3.03
2023-10-12T11:57:37.174Z,2.92
2023-10-12T12:00:38.470Z,3.15
2023-10-12T12:03:42.412Z,3.00
2023-10-12T12:06:43.664Z,2.97
2023-10-12T12:09:49.876Z,2.90
2023-10-12T12:12:53.583Z,2.80
2023-10-12T12:15:57.039Z,2.80
2023-10-12T12:18:59.783Z,2.90
2023-10-12T12:22:01.082Z,2.83
2023-10-12T12:25:14.719Z,2.83
2023-10-12T12:28:15.978Z,2.53
2023-10-12T12:31:17.345Z,2.85
2023-10-12T12:34:37.229Z,3.40
2023-10-12T12:37:39.693Z,2.75
2023-10-12T12:40:40.603Z,2.92
2023-10-12T12:43:42.436Z,3.53
2023-10-12T12:46:43.486Z,2.53
2023-10-12T12:49:44.446Z,2.95
2023-10-12T12:52:48.334Z,3.00
2023-10-12T12:55:49.488Z,3.22
2023-10-12T12:58:53.412Z,3.05
2023-10-12T13:01:54.898Z,2.83
2023-10-12T13:04:55.876Z,3.10
2023-10-12T13:07:57.750Z,2.30
2023-10-12T13:10:59.471Z,2.88
2023-10-12T13:14:00.575Z,3.67
2023-10-12T13:17:01.807Z,3.08
2023-10-12T13:20:02.997Z,2.88
2023-10-12T13:23:04.144Z,3.05
2023-10-12T13:26:09.676Z,2.70
2023-10-12T13:29:13.762Z,3.22
2023-10-12T13:32:18.807Z,2.83
2023-10-12T13:35:19.875Z,2.92
2023-10-12T13:38:21.086Z,2.72
2023-10-12T13:41:22.371Z,2.85
2023-10-12T13:44:27.105Z,2.80
2023-10-12T13:47:33.245Z,2.72
2023-10-12T13:50:36.424Z,2.90
2023-10-12T13:53:38.347Z,3.00
2023-10-12T13:56:39.654Z,2.63
2023-10-12T13:59:40.670Z,2.55
2023-10-12T14:02:43.541Z,3.08
2023-10-12T14:05:45.584Z,3.40
2023-10-12T14:08:47.992Z,2.47
2023-10-12T14:11:52.879Z,2.55
2023-10-12T14:14:54.627Z,2.35
2023-10-12T14:18:00.645Z,2.88
2023-10-12T14:21:01.607Z,3.10
2023-10-12T14:24:04.461Z,2.63
2023-10-12T14:27:08.136Z,2.75
2023-10-12T14:30:18.360Z,2.42
2023-10-12T14:33:20.804Z,2.63
2023-10-12T14:36:22.229Z,2.90
2023-10-12T14:39:26.424Z,3.05
2023-10-12T14:42:30.050Z,2.53
2023-10-12T14:45:32.833Z,2.60
2023-10-12T14:48:33.841Z,2.72
2023-10-12T14:51:35.037Z,2.92
2023-10-12T14:54:36.494Z,3.22
2023-10-12T14:57:40.781Z,2.85
2023-10-12T15:00:45.488Z,3.10
2023-10-12T15:03:46.791Z,3.22
2023-10-12T15:06:47.638Z,2.92
2023-10-12T15:09:51.318Z,2.72
2023-10-12T15:12:52.885Z,2.75
2023-10-12T15:15:55.066Z,3.55
2023-10-12T15:18:56.206Z,2.78
2023-10-12T15:21:57.983Z,3.03
2023-10-12T15:24:59.163Z,2.67
2023-10-12T15:28:00.363Z,2.55
2023-10-12T15:31:05.527Z,3.38
2023-10-12T15:34:06.987Z,2.90
2023-10-12T15:37:09.211Z,2.30
2023-10-12T15:40:10.974Z,2.40
2023-10-12T15:43:16.862Z,2.60
2023-10-12T15:46:18.876Z,3.92
2023-10-12T15:49:20.616Z,3.08
2023-10-12T15:52:21.923Z,2.90
2023-10-12T15:55:26.195Z,2.63
2023-10-12T15:58:29.272Z,3.05
2023-10-12T16:01:31.917Z,3.00
2023-10-12T16:04:33.252Z,2.65
2023-10-12T16:07:35.012Z,3.28
2023-10-12T16:10:37.642Z,3.40
2023-10-12T16:13:38.412Z,3.55
2023-10-12T16:16:39.772Z,2.88
2023-10-12T16:19:41.064Z,3.20
2023-10-12T16:22:45.872Z,2.72
2023-10-12T16:25:49.565Z,2.90
2023-10-12T16:28:52.666Z,3.30
2023-10-12T16:31:54.546Z,3.15
2023-10-12T16:34:55.718Z,3.30
2023-10-12T16:37:57.910Z,4.18
2023-10-12T16:40:59.437Z,3.40
2023-10-12T16:44:00.491Z,3.72
2023-10-12T16:47:01.391Z,3.33
2023-10-12T16:50:02.856Z,3.88
2023-10-12T16:53:06.646Z,3.78
2023-10-12T16:56:17.012Z,3.40
2023-10-12T16:59:18.210Z,3.72
2023-10-12T17:02:20.156Z,3.30
2023-10-12T17:05:24.503Z,3.75
2023-10-12T17:08:30.468Z,3.38
2023-10-12T17:11:31.538Z,3.00
2023-10-12T17:14:32.506Z,3.00
2023-10-12T17:17:33.775Z,3.05
2023-10-12T17:20:34.880Z,2.65
2023-10-12T17:23:38.826Z,3.00
2023-10-12T17:26:40.068Z,3.47
2023-10-12T17:29:41.052Z,3.28
2023-10-12T17:32:42.705Z,3.05
2023-10-12T17:35:46.195Z,3.22
2023-10-12T17:38:49.073Z,2.78
2023-10-12T17:41:50.709Z,3.10
2023-10-12T17:44:51.693Z,3.10
2023-10-12T17:47:52.968Z,2.97
2023-10-12T17:50:53.868Z,3.05
2023-10-12T17:53:54.898Z,2.55
2023-10-12T17:56:55.870Z,3.28
2023-10-12T17:59:56.784Z,3.10
2023-10-12T18:02:58.703Z,3.25
2023-10-12T18:06:00.440Z,3.15
2023-10-12T18:09:01.582Z,3.10
2023-10-12T18:12:02.421Z,2.95
2023-10-12T18:15:03.527Z,3.20
2023-10-12T18:18:04.878Z,3.03
2023-10-12T18:21:09.137Z,3.15
2023-10-12T18:24:10.101Z,3.17
2023-10-12T18:27:11.696Z,3.75
2023-10-12T18:30:15.189Z,3.05
2023-10-12T18:33:16.130Z,3.50
2023-10-12T18:36:17.791Z,3.33
2023-10-12T18:39:19.109Z,3.53
2023-10-12T18:42:20.330Z,3.78
2023-10-12T18:45:21.969Z,3.50
2023-10-12T18:48:25.727Z,3.63
2023-10-12T18:51:27.574Z,3.60
2023-10-12T18:54:28.655Z,3.70
2023-10-12T18:57:29.823Z,3.67
2023-10-12T19:00:31.355Z,3.22
2023-10-12T19:03:33.920Z,3.10
2023-10-12T19:06:38.014Z,3.38
2023-10-12T19:09:39.353Z,2.90
2023-10-12T19:12:41.914Z,3.45
2023-10-12T19:15:42.623Z,3.03
2023-10-12T19:18:43.664Z,3.28
2023-10-12T19:21:44.580Z,3.22
2023-10-12T19:24:52.634Z,3.17
2023-10-12T19:27:54.049Z,3.03
2023-10-12T19:30:58.280Z,3.55
2023-10-12T19:33:59.233Z,3.65
2023-10-12T19:37:00.138Z,3.42
2023-10-12T19:40:01.361Z,3.42
2023-10-12T19:43:02.272Z,3.30
2023-10-12T19:46:13.959Z,4.25
2023-10-12T19:49:15.407Z,3.72
2023-10-12T19:52:17.848Z,3.80
2023-10-12T19:55:19.113Z,3.75
2023-10-12T19:58:20.475Z,3.63
2023-10-12T20:01:22.333Z,3.42
2023-10-12T20:04:23.748Z,4.15
2023-10-12T20:07:24.984Z,3.95
2023-10-12T20:10:25.724Z,3.45
2023-10-12T20:13:30.871Z,3.65
2023-10-12T20:16:31.883Z,3.58
2023-10-12T20:19:34.920Z,3.60
2023-10-12T20:22:38.739Z,4.30
2023-10-12T20:26:00.156Z,3.53
2023-10-12T20:29:01.225Z,3.97
2023-10-12T20:32:02.392Z,3.80
2023-10-12T20:35:03.706Z,3.95
2023-10-12T20:38:05.650Z,4.18
2023-10-12T20:41:06.663Z,4.30
2023-10-12T20:44:07.540Z,3.90
2023-10-12T20:47:10.645Z,4.18
2023-10-12T20:50:12.788Z,4.03
2023-10-12T20:53:13.727Z,3.83
2023-10-12T20:56:30.322Z,3.20
2023-10-12T21:02:38.228Z,3.67
2023-10-12T21:05:40.923Z,3.80
2023-10-12T21:08:48.148Z,4.32
2023-10-12T21:11:58.986Z,3.63
2023-10-12T21:15:01.913Z,3.55
2023-10-12T21:18:13.603Z,3.63
2023-10-12T21:21:28.835Z,3.20
2023-10-12T21:24:38.887Z,4.03
2023-10-12T21:27:46.122Z,3.95
2023-10-12T21:30:52.285Z,2.90
2023-10-12T21:33:54.583Z,3.38
2023-10-12T21:36:55.635Z,3.13
2023-10-12T21:39:56.931Z,3.08
2023-10-12T21:43:08.400Z,3.03
2023-10-12T21:46:12.339Z,3.10
2023-10-12T21:49:13.449Z,3.20
2023-10-12T21:52:14.467Z,3.05
2023-10-12T21:55:16.103Z,3.45
2023-10-12T21:58:17.345Z,3.55
2023-10-12T22:01:27.753Z,3.35
2023-10-12T22:04:35.797Z,3.35
2023-10-12T22:07:37.049Z,4.43
2023-10-12T22:10:37.953Z,3.13
2023-10-12T22:13:55.291Z,2.60
2023-10-12T22:16:57.428Z,2.85
2023-10-12T22:19:59.413Z,3.10
2023-10-12T22:23:01.375Z,2.78
2023-10-12T22:26:02.850Z,3.13
2023-10-12T22:29:09.893Z,3.45
2023-10-12T22:32:11.672Z,3.00
2023-10-12T22:35:12.632Z,2.63
2023-10-12T22:38:13.941Z,2.70
2023-10-12T22:41:20.775Z,3.20
2023-10-12T22:44:21.775Z,3.35
2023-10-12T22:47:23.699Z,2.50
2023-10-12T22:50:26.070Z,2.63
2023-10-12T22:53:26.910Z,3.10
2023-10-12T22:56:27.799Z,3.25
2023-10-12T22:59:30.745Z,2.63
2023-10-12T23:02:35.915Z,3.38
2023-10-12T23:05:39.053Z,3.60
2023-10-12T23:08:40.467Z,3.75
2023-10-12T23:11:41.153Z,3.33
2023-10-12T23:14:46.227Z,3.13
2023-10-12T23:17:47.764Z,3.00
2023-10-12T23:20:50.559Z,2.85
2023-10-12T23:23:51.471Z,2.80
2023-10-12T23:26:53.154Z,3.45
2023-10-12T23:29:54.209Z,2.95
2023-10-12T23:32:57.776Z,2.72
2023-10-12T23:36:02.348Z,3.63
2023-10-12T23:39:14.538Z,3.00
2023-10-12T23:42:16.880Z,2.95
2023-10-12T23:45:29.177Z,3.42
2023-10-12T23:48:33.801Z,2.95
2023-10-12T23:51:35.700Z,3.60
2023-10-12T23:54:37.884Z,3.58
2023-10-12T23:57:41.180Z,3.30
